createdAt,value
2018-09-10T00:01:54.940Z,99.90
2018-09-10T00:04:22.486Z,99.90
2018-09-10T00:06:50.244Z,99.90
2018-09-10T00:09:18.140Z,99.90
2018-09-10T00:11:45.842Z,99.90
2018-09-10T00:14:13.531Z,99.90
2018-09-10T00:16:41.202Z,99.90
2018-09-10T00:19:08.721Z,99.90
2018-09-10T00:21:36.283Z,99.90
2018-09-10T00:24:03.845Z,99.90
2018-09-10T00:26:31.507Z,99.90
2018-09-10T00:28:59.072Z,99.90
2018-09-10T00:31:26.841Z,99.90
2018-09-10T00:33:54.760Z,99.90
2018-09-10T00:36:22.579Z,99.90
2018-09-10T00:38:50.779Z,99.90
2018-09-10T00:41:18.491Z,99.90
2018-09-10T00:43:46.715Z,99.90
2018-09-10T00:46:14.294Z,99.90
2018-09-10T00:48:42.224Z,99.90
2018-09-10T00:51:10.220Z,99.90
2018-09-10T00:53:37.936Z,99.90
2018-09-10T00:56:05.656Z,99.90
2018-09-10T00:58:33.872Z,99.90
2018-09-10T01:01:01.446Z,99.90
2018-09-10T01:03:29.777Z,99.90
2018-09-10T01:05:57.825Z,99.90
2018-09-10T01:08:25.997Z,99.90
2018-09-10T01:10:54.377Z,99.90
2018-09-10T01:13:22.039Z,99.90
2018-09-10T01:15:49.641Z,99.90
2018-09-10T01:18:17.399Z,99.90
2018-09-10T01:20:45.208Z,99.90
2018-09-10T01:23:12.963Z,99.90
2018-09-10T01:25:40.512Z,99.90
2018-09-10T01:28:08.280Z,99.90
2018-09-10T01:30:35.906Z,99.90
2018-09-10T01:33:03.947Z,99.90
2018-09-10T01:35:33.259Z,99.90
2018-09-10T01:38:00.875Z,99.90
2018-09-10T01:40:28.584Z,99.90
2018-09-10T01:42:56.130Z,99.90
2018-09-10T01:45:23.699Z,99.90
2018-09-10T01:47:51.320Z,99.90
2018-09-10T01:50:18.911Z,99.90
2018-09-10T01:52:46.443Z,99.90
2018-09-10T01:55:14.227Z,99.90
2018-09-10T01:57:42.024Z,99.90
2018-09-10T02:00:09.627Z,99.90
2018-09-10T02:02:37.300Z,99.90
2018-09-10T02:05:05.163Z,99.90
2018-09-10T02:07:32.829Z,99.90
2018-09-10T02:10:00.535Z,99.90
2018-09-10T02:12:28.172Z,99.90
2018-09-10T02:14:56.300Z,99.90
2018-09-10T02:17:24.648Z,99.90
2018-09-10T02:19:52.452Z,99.90
2018-09-10T02:22:20.277Z,99.90
2018-09-10T02:24:47.959Z,99.90
2018-09-10T02:27:15.688Z,99.90
2018-09-10T02:29:43.528Z,99.90
2018-09-10T02:32:11.695Z,99.90
2018-09-10T02:34:39.404Z,99.90
2018-09-10T02:37:06.954Z,99.90
2018-09-10T02:39:34.706Z,99.90
2018-09-10T02:42:02.283Z,99.90
2018-09-10T02:44:29.906Z,99.90
2018-09-10T02:46:57.655Z,99.90
2018-09-10T02:49:25.359Z,99.90
2018-09-10T02:51:52.936Z,99.90
2018-09-10T02:54:21.127Z,99.90
2018-09-10T02:56:48.848Z,99.90
2018-09-10T02:59:16.539Z,99.90
2018-09-10T03:01:44.291Z,99.90
2018-09-10T03:04:11.850Z,99.90
2018-09-10T03:06:39.656Z,99.90
2018-09-10T03:09:08.095Z,99.90
2018-09-10T03:11:36.488Z,99.90
2018-09-10T03:14:04.128Z,99.90
2018-09-10T03:16:31.826Z,99.90
2018-09-10T03:18:59.480Z,99.90
2018-09-10T03:21:27.255Z,99.90
2018-09-10T03:23:55.080Z,99.90
2018-09-10T03:26:22.700Z,99.90
2018-09-10T03:28:50.327Z,99.90
2018-09-10T03:31:18.157Z,99.90
2018-09-10T03:33:46.024Z,99.90
2018-09-10T03:36:13.713Z,99.90
2018-09-10T03:38:41.388Z,99.90
2018-09-10T03:41:09.071Z,99.90
2018-09-10T03:43:36.739Z,99.90
2018-09-10T03:46:04.951Z,99.90
2018-09-10T03:48:32.708Z,99.90
2018-09-10T03:51:00.381Z,99.90
2018-09-10T03:53:28.182Z,99.90
2018-09-10T03:55:55.987Z,99.90
2018-09-10T03:58:23.603Z,99.90
2018-09-10T04:00:51.661Z,99.90
2018-09-10T04:03:19.327Z,99.90
2018-09-10T04:05:46.947Z,99.90
2018-09-10T04:08:14.687Z,99.90
2018-09-10T04:10:42.288Z,99.90
2018-09-10T04:13:09.975Z,99.90
2018-09-10T04:15:37.579Z,99.90
2018-09-10T04:18:05.435Z,99.90
2018-09-10T04:20:33.375Z,99.90
2018-09-10T04:23:01.027Z,99.90
2018-09-10T04:25:28.751Z,99.90
2018-09-10T04:27:56.375Z,99.90
2018-09-10T04:30:24.071Z,99.90
2018-09-10T04:32:51.731Z,99.90
2018-09-10T04:35:19.453Z,99.90
2018-09-10T04:37:47.044Z,99.90
2018-09-10T04:40:14.639Z,99.90
2018-09-10T04:42:42.871Z,99.90
2018-09-10T04:45:10.601Z,99.90
2018-09-10T04:47:38.349Z,99.90
2018-09-10T04:50:06.071Z,99.90
2018-09-10T04:52:33.631Z,99.90
2018-09-10T04:55:01.449Z,99.90
2018-09-10T04:57:29.223Z,99.90
2018-09-10T04:59:56.928Z,99.90
2018-09-10T05:02:24.461Z,99.90
2018-09-10T05:04:52.163Z,99.90
2018-09-10T05:07:19.783Z,99.90
2018-09-10T05:09:47.437Z,99.90
2018-09-10T05:12:15.000Z,99.90
2018-09-10T05:14:43.139Z,99.90
2018-09-10T05:17:11.358Z,99.90
2018-09-10T05:19:39.084Z,99.90
2018-09-10T05:22:06.754Z,99.90
2018-09-10T05:24:34.320Z,99.90
2018-09-10T05:27:01.905Z,99.90
2018-09-10T05:29:29.492Z,99.90
2018-09-10T05:31:57.134Z,99.90
2018-09-10T05:34:24.691Z,99.90
2018-09-10T05:36:52.551Z,99.90
2018-09-10T05:39:20.320Z,99.90
2018-09-10T05:41:48.754Z,99.90
2018-09-10T05:44:16.407Z,99.90
2018-09-10T05:46:44.120Z,99.90
2018-09-10T05:49:11.827Z,99.90
2018-09-10T05:51:39.518Z,99.90
2018-09-10T05:54:07.211Z,99.90
2018-09-10T05:56:35.094Z,99.90
2018-09-10T05:59:02.919Z,99.90
2018-09-10T06:01:30.570Z,99.90
2018-09-10T06:03:58.823Z,99.90
2018-09-10T06:06:26.583Z,99.90
2018-09-10T06:08:54.449Z,99.90
2018-09-10T06:11:22.050Z,99.90
2018-09-10T06:13:49.648Z,99.90
2018-09-10T06:16:17.415Z,99.90
2018-09-10T06:18:45.204Z,99.90
2018-09-10T06:21:12.985Z,99.90
2018-09-10T06:23:41.228Z,99.90
2018-09-10T06:26:09.115Z,99.90
2018-09-10T06:28:36.815Z,99.90
2018-09-10T06:31:04.475Z,99.90
2018-09-10T06:33:32.090Z,99.90
2018-09-10T06:35:59.715Z,99.90
2018-09-10T06:38:27.363Z,99.90
2018-09-10T06:40:55.029Z,99.90
2018-09-10T06:43:22.899Z,99.90
2018-09-10T06:45:51.008Z,99.90
2018-09-10T06:48:18.767Z,99.90
2018-09-10T06:50:46.307Z,99.90
2018-09-10T06:53:14.039Z,99.90
2018-09-10T06:55:41.816Z,99.90
2018-09-10T06:58:09.519Z,99.90
2018-09-10T07:00:37.155Z,99.90
2018-09-10T07:03:05.215Z,99.90
2018-09-10T07:05:32.997Z,99.90
2018-09-10T07:08:00.719Z,99.90
2018-09-10T07:10:28.415Z,99.90
2018-09-10T07:12:56.072Z,99.90
2018-09-10T07:15:23.663Z,99.90
2018-09-10T07:17:51.523Z,99.90
2018-09-10T07:20:19.303Z,99.90
2018-09-10T07:22:46.948Z,99.90
2018-09-10T07:25:14.625Z,99.90
2018-09-10T07:27:42.320Z,99.90
2018-09-10T07:30:10.208Z,99.90
2018-09-10T07:32:37.735Z,99.90
2018-09-10T07:35:05.351Z,99.90
2018-09-10T07:37:33.623Z,99.90
2018-09-10T07:40:02.175Z,99.90
2018-09-10T07:42:29.860Z,99.90
2018-09-10T07:44:57.584Z,99.90
2018-09-10T07:47:25.248Z,99.90
2018-09-10T07:49:52.874Z,99.90
2018-09-10T07:52:20.458Z,99.90
2018-09-10T07:54:48.036Z,99.90
2018-09-10T07:57:16.922Z,99.90
2018-09-10T07:59:44.504Z,99.90
2018-09-10T08:02:12.159Z,99.90
2018-09-10T08:04:39.763Z,99.90
2018-09-10T08:07:08.291Z,99.90
2018-09-10T08:09:36.050Z,99.90
2018-09-10T08:12:03.893Z,99.90
2018-09-10T08:14:31.644Z,99.90
2018-09-10T08:17:00.139Z,99.90
2018-09-10T08:19:28.045Z,99.90
2018-09-10T08:21:55.579Z,99.90
2018-09-10T08:24:23.280Z,99.90
2018-09-10T08:26:50.863Z,99.90
2018-09-10T08:29:18.471Z,99.90
2018-09-10T08:31:46.104Z,99.90
2018-09-10T08:34:15.020Z,99.90
2018-09-10T08:36:42.688Z,99.90
2018-09-10T08:39:10.507Z,99.90
2018-09-10T08:41:38.215Z,99.50
2018-09-10T08:44:05.820Z,98.60
2018-09-10T08:46:34.421Z,97.30
2018-09-10T08:49:01.992Z,96.90
2018-09-10T08:51:29.602Z,97.30
2018-09-10T08:53:57.253Z,97.50
2018-09-10T08:56:24.992Z,97.40
2018-09-10T08:58:52.563Z,97.30
2018-09-10T09:01:20.147Z,96.80
2018-09-10T09:03:47.729Z,95.60
2018-09-10T09:06:16.004Z,94.90
2018-09-10T09:08:43.692Z,94.50
2018-09-10T09:11:11.352Z,93.30
2018-09-10T09:13:39.199Z,93.40
2018-09-10T09:16:06.839Z,94.20
2018-09-10T09:18:34.380Z,94.70
2018-09-10T09:21:02.099Z,93.80
2018-09-10T09:23:30.047Z,93.80
2018-09-10T09:25:57.619Z,92.40
2018-09-10T09:28:25.356Z,92.60
2018-09-10T09:30:53.054Z,92.20
2018-09-10T09:33:20.611Z,91.60
2018-09-10T09:35:54.464Z,90.20
2018-09-10T09:38:27.608Z,87.70
2018-09-10T09:41:01.031Z,88.70
2018-09-10T09:43:34.291Z,87.70
2018-09-10T09:46:05.151Z,86.70
2018-09-10T09:48:32.964Z,84.10
2018-09-10T09:51:00.939Z,82.00
2018-09-10T09:53:28.414Z,81.90
2018-09-10T09:55:56.138Z,83.40
2018-09-10T09:58:24.003Z,81.10
2018-09-10T10:00:53.651Z,80.90
2018-09-10T10:03:27.359Z,78.20
2018-09-10T10:05:55.200Z,79.70
2018-09-10T10:08:22.796Z,76.40
2018-09-10T10:10:50.439Z,77.40
2018-09-10T10:13:18.123Z,71.80
2018-09-10T10:15:45.795Z,71.70
2018-09-10T10:18:13.646Z,70.80
2018-09-10T10:20:41.144Z,71.50
2018-09-10T10:23:08.891Z,68.10
2018-09-10T10:25:36.791Z,69.10
2018-09-10T10:28:04.606Z,69.00
2018-09-10T10:30:32.168Z,67.30
2018-09-10T10:32:59.779Z,66.20
2018-09-10T10:35:27.471Z,61.10
2018-09-10T10:37:55.231Z,65.20
2018-09-10T10:40:22.963Z,65.40
2018-09-10T10:42:50.527Z,68.10
2018-09-10T10:45:18.415Z,59.30
2018-09-10T10:47:45.966Z,65.00
2018-09-10T10:50:13.676Z,63.10
2018-09-10T10:52:41.483Z,59.60
2018-09-10T10:55:09.146Z,60.30
2018-09-10T10:57:36.950Z,63.60
2018-09-10T11:00:05.051Z,61.60
2018-09-10T11:02:32.740Z,60.50
2018-09-10T11:05:04.752Z,59.50
2018-09-10T11:07:32.423Z,59.30
2018-09-10T11:10:00.087Z,55.10
2018-09-10T11:12:27.611Z,54.50
2018-09-10T11:14:55.175Z,55.70
2018-09-10T11:17:22.987Z,57.70
2018-09-10T11:19:50.747Z,56.60
2018-09-10T11:22:18.514Z,51.80
2018-09-10T11:24:46.531Z,53.90
2018-09-10T11:27:14.324Z,51.40
2018-09-10T11:29:42.399Z,54.20
2018-09-10T11:32:10.738Z,51.80
2018-09-10T11:34:38.500Z,57.00
2018-09-10T11:37:06.152Z,55.40
2018-09-10T11:39:33.959Z,55.30
2018-09-10T11:42:01.601Z,54.80
2018-09-10T11:44:29.388Z,50.70
2018-09-10T11:46:57.075Z,51.40
2018-09-10T11:49:24.664Z,54.10
2018-09-10T11:51:52.262Z,50.00
2018-09-10T11:54:19.805Z,52.70
2018-09-10T11:56:47.340Z,54.10
2018-09-10T11:59:15.300Z,51.60
2018-09-10T12:01:43.323Z,52.00
2018-09-10T12:04:10.923Z,51.60
2018-09-10T12:06:38.548Z,52.70
2018-09-10T12:09:07.348Z,53.30
2018-09-10T12:11:35.268Z,53.70
2018-09-10T12:14:02.968Z,52.50
2018-09-10T12:16:30.915Z,57.30
2018-09-10T12:18:59.070Z,52.80
2018-09-10T12:21:26.645Z,55.50
2018-09-10T12:23:54.339Z,54.00
2018-09-10T12:26:22.497Z,55.40
2018-09-10T12:28:50.836Z,58.00
2018-09-10T12:31:18.423Z,56.00
2018-09-10T12:33:46.158Z,57.80
2018-09-10T12:36:13.959Z,57.30
2018-09-10T12:38:41.528Z,56.70
2018-09-10T12:41:09.451Z,56.10
2018-09-10T12:43:37.479Z,57.50
2018-09-10T12:46:05.455Z,55.60
2018-09-10T12:48:33.088Z,56.00
2018-09-10T12:51:01.009Z,57.10
2018-09-10T12:53:28.967Z,56.20
2018-09-10T12:55:56.660Z,56.10
2018-09-10T12:58:24.943Z,57.60
2018-09-10T13:00:52.488Z,55.70
2018-09-10T13:03:20.239Z,56.70
2018-09-10T13:05:48.071Z,55.40
2018-09-10T13:08:16.361Z,55.50
2018-09-10T13:10:44.041Z,56.30
2018-09-10T13:13:11.600Z,57.30
2018-09-10T13:15:39.211Z,57.40
2018-09-10T13:18:07.149Z,55.80
2018-09-10T13:20:34.719Z,56.20
2018-09-10T13:23:02.327Z,55.80
2018-09-10T13:25:29.923Z,55.30
2018-09-10T13:27:57.946Z,55.20
2018-09-10T13:30:25.835Z,55.80
2018-09-10T13:32:53.447Z,57.00
2018-09-10T13:35:21.208Z,56.90
2018-09-10T13:37:48.919Z,58.50
2018-09-10T13:40:17.063Z,57.90
2018-09-10T13:42:44.744Z,57.30
2018-09-10T13:45:12.397Z,58.30
2018-09-10T13:47:41.563Z,57.80
2018-09-10T13:50:09.472Z,57.40
2018-09-10T13:52:37.248Z,57.20
2018-09-10T13:55:05.327Z,58.50
2018-09-10T13:57:33.323Z,57.50
2018-09-10T14:00:01.183Z,59.00
2018-09-10T14:02:29.240Z,58.60
2018-09-10T14:04:56.911Z,57.40
2018-09-10T14:07:24.551Z,57.70
2018-09-10T14:09:52.251Z,58.10
2018-09-10T14:12:20.075Z,60.40
2018-09-10T14:14:47.905Z,58.70
2018-09-10T14:17:15.507Z,58.70
2018-09-10T14:19:43.324Z,59.60
2018-09-10T14:22:11.805Z,59.70
2018-09-10T14:24:39.395Z,59.20
2018-09-10T14:27:07.001Z,58.60
2018-09-10T14:29:34.941Z,57.80
2018-09-10T14:32:02.543Z,58.90
2018-09-10T14:34:30.492Z,59.10
2018-09-10T14:36:58.252Z,59.80
2018-09-10T14:39:26.892Z,62.70
2018-09-10T14:41:54.570Z,59.90
2018-09-10T14:44:22.435Z,62.30
2018-09-10T14:46:50.440Z,62.80
2018-09-10T14:49:18.242Z,61.40
2018-09-10T14:51:46.717Z,60.90
2018-09-10T14:54:14.391Z,60.10
2018-09-10T14:56:42.079Z,60.90
2018-09-10T14:59:09.919Z,62.20
2018-09-10T15:01:37.523Z,63.70
2018-09-10T15:04:05.205Z,60.20
2018-09-10T15:06:33.067Z,65.30
2018-09-10T15:09:00.647Z,63.90
2018-09-10T15:11:28.385Z,65.20
2018-09-10T15:13:56.331Z,64.80
2018-09-10T15:16:24.606Z,60.80
2018-09-10T15:18:52.438Z,59.10
2018-09-10T15:21:20.282Z,62.70
2018-09-10T15:23:48.427Z,59.90
2018-09-10T15:26:17.515Z,57.90
2018-09-10T15:28:46.972Z,57.40
2018-09-10T15:31:14.891Z,56.10
2018-09-10T15:33:42.483Z,56.50
2018-09-10T15:36:10.203Z,55.80
2018-09-10T15:38:38.078Z,55.30
2018-09-10T15:41:05.928Z,54.10
2018-09-10T15:43:33.756Z,54.40
2018-09-10T15:46:01.419Z,56.40
2018-09-10T15:48:29.043Z,54.50
2018-09-10T15:50:56.693Z,54.00
2018-09-10T15:53:24.593Z,54.80
2018-09-10T15:55:52.847Z,56.10
2018-09-10T15:58:20.500Z,58.40
2018-09-10T16:00:49.702Z,57.50
2018-09-10T16:03:17.516Z,56.30
2018-09-10T16:05:45.095Z,58.20
2018-09-10T16:08:12.763Z,58.50
2018-09-10T16:10:40.479Z,58.10
2018-09-10T16:13:08.120Z,57.70
2018-09-10T16:15:35.962Z,59.60
2018-09-10T16:18:04.436Z,60.50
2018-09-10T16:20:32.272Z,61.30
2018-09-10T16:23:00.025Z,60.90
2018-09-10T16:25:27.938Z,62.90
2018-09-10T16:27:56.103Z,60.40
2018-09-10T16:30:23.811Z,60.90
2018-09-10T16:32:52.970Z,67.50
2018-09-10T16:35:20.687Z,62.40
2018-09-10T16:37:48.409Z,65.50
2018-09-10T16:40:16.041Z,69.50
2018-09-10T16:42:43.885Z,71.20
2018-09-10T16:45:11.962Z,67.20
2018-09-10T16:47:39.591Z,70.00
2018-09-10T16:50:07.278Z,74.30
2018-09-10T16:52:34.951Z,68.60
2018-09-10T16:55:02.946Z,67.90
2018-09-10T16:57:31.275Z,75.50
2018-09-10T16:59:58.913Z,76.80
2018-09-10T17:02:26.660Z,77.50
2018-09-10T17:04:54.385Z,69.60
2018-09-10T17:07:22.202Z,72.90
2018-09-10T17:09:49.879Z,70.20
2018-09-10T17:12:19.017Z,77.10
2018-09-10T17:14:47.536Z,76.40
2018-09-10T17:17:15.151Z,77.40
2018-09-10T17:19:42.823Z,79.40
2018-09-10T17:22:10.683Z,81.00
2018-09-10T17:24:38.308Z,81.70
2018-09-10T17:27:06.831Z,83.10
2018-09-10T17:29:34.801Z,84.00
2018-09-10T17:32:02.650Z,85.30
2018-09-10T17:34:30.279Z,86.40
2018-09-10T17:36:58.112Z,87.00
2018-09-10T17:39:25.839Z,89.30
2018-09-10T17:41:53.748Z,90.70
2018-09-10T17:44:21.779Z,91.50
2018-09-10T17:46:49.662Z,92.40
2018-09-10T17:49:17.776Z,92.70
2018-09-10T17:51:45.701Z,93.40
2018-09-10T17:54:13.323Z,95.30
2018-09-10T17:56:41.019Z,96.40
2018-09-10T17:59:08.872Z,97.90
2018-09-10T18:01:37.131Z,98.90
2018-09-10T18:04:05.142Z,98.90
2018-09-10T18:06:32.987Z,99.90
2018-09-10T18:09:00.679Z,99.90
2018-09-10T18:11:28.439Z,99.90
2018-09-10T18:13:56.280Z,99.90
2018-09-10T18:16:24.017Z,99.90
2018-09-10T18:18:51.879Z,99.90
2018-09-10T18:21:19.546Z,99.90
2018-09-10T18:23:47.268Z,99.90
2018-09-10T18:26:15.073Z,99.90
2018-09-10T18:28:42.683Z,99.90
2018-09-10T18:31:11.314Z,99.90
2018-09-10T18:33:39.045Z,99.90
2018-09-10T18:36:07.070Z,99.90
2018-09-10T18:38:35.030Z,99.90
2018-09-10T18:41:03.751Z,99.90
2018-09-10T18:43:31.533Z,99.90
2018-09-10T18:45:59.455Z,99.90
2018-09-10T18:48:27.285Z,99.90
2018-09-10T18:50:55.184Z,99.90
2018-09-10T18:53:23.039Z,99.90
2018-09-10T18:55:50.972Z,99.90
2018-09-10T18:58:18.832Z,99.90
2018-09-10T19:00:46.462Z,99.90
2018-09-10T19:03:14.173Z,99.90
2018-09-10T19:05:42.224Z,99.90
2018-09-10T19:08:09.896Z,99.90
2018-09-10T19:10:38.206Z,99.90
2018-09-10T19:13:06.259Z,99.90
2018-09-10T19:15:34.569Z,99.90
2018-09-10T19:18:03.063Z,99.90
2018-09-10T19:20:31.284Z,99.90
2018-09-10T19:22:59.111Z,99.90
2018-09-10T19:25:26.671Z,99.90
2018-09-10T19:27:54.430Z,99.90
2018-09-10T19:30:22.802Z,99.90
2018-09-10T19:32:50.675Z,99.90
2018-09-10T19:35:18.432Z,99.90
2018-09-10T19:37:46.974Z,99.90
2018-09-10T19:40:14.674Z,99.90
2018-09-10T19:42:42.289Z,99.90
2018-09-10T19:45:10.066Z,99.90
2018-09-10T19:47:38.301Z,99.90
2018-09-10T19:50:06.914Z,99.90
2018-09-10T19:52:35.190Z,99.90
2018-09-10T19:55:03.157Z,99.90
2018-09-10T19:57:30.947Z,99.90
2018-09-10T19:59:58.680Z,99.90
2018-09-10T20:02:26.328Z,99.90
2018-09-10T20:04:54.248Z,99.90
2018-09-10T20:07:22.542Z,99.90
2018-09-10T20:09:50.397Z,99.90
2018-09-10T20:12:18.146Z,99.90
2018-09-10T20:14:45.985Z,99.90
2018-09-10T20:17:13.949Z,99.90
2018-09-10T20:19:41.663Z,99.90
2018-09-10T20:22:13.318Z,99.90
2018-09-10T20:24:40.968Z,99.90
2018-09-10T20:27:08.632Z,99.90
2018-09-10T20:29:36.303Z,99.90
2018-09-10T20:32:03.874Z,99.90
2018-09-10T20:34:31.544Z,99.90
2018-09-10T20:36:59.299Z,99.90
2018-09-10T20:39:27.050Z,99.90
2018-09-10T20:41:54.851Z,99.90
2018-09-10T20:44:22.528Z,99.90
2018-09-10T20:46:50.495Z,99.90
2018-09-10T20:49:18.124Z,99.90
2018-09-10T20:51:45.771Z,99.90
2018-09-10T20:54:13.719Z,99.90
2018-09-10T20:56:41.347Z,99.90
2018-09-10T20:59:08.996Z,99.90
2018-09-10T21:01:36.683Z,99.90
2018-09-10T21:04:04.439Z,99.90
2018-09-10T21:06:32.171Z,99.90
2018-09-10T21:08:59.855Z,99.90
2018-09-10T21:11:27.536Z,99.90
2018-09-10T21:13:55.073Z,99.90
2018-09-10T21:16:23.000Z,99.90
2018-09-10T21:18:50.636Z,99.90
2018-09-10T21:21:18.383Z,99.90
2018-09-10T21:23:47.075Z,99.90
2018-09-10T21:26:14.913Z,99.90
2018-09-10T21:28:42.541Z,99.90
2018-09-10T21:31:10.243Z,99.90
2018-09-10T21:33:37.879Z,99.90
2018-09-10T21:36:05.503Z,99.90
2018-09-10T21:38:34.312Z,99.90
2018-09-10T21:41:02.097Z,99.90
2018-09-10T21:43:29.903Z,99.90
2018-09-10T21:45:57.491Z,99.90
2018-09-10T21:48:25.177Z,99.90
2018-09-10T21:50:52.823Z,99.90
2018-09-10T21:53:20.547Z,99.90
2018-09-10T21:55:48.187Z,99.90
2018-09-10T21:58:15.884Z,99.90
2018-09-10T22:00:50.354Z,99.90
2018-09-10T22:03:17.996Z,99.90
2018-09-10T22:05:45.918Z,99.90
2018-09-10T22:08:13.732Z,99.90
2018-09-10T22:10:42.114Z,99.90
2018-09-10T22:13:09.739Z,99.90
2018-09-10T22:15:38.103Z,99.90
2018-09-10T22:18:05.927Z,99.90
2018-09-10T22:20:33.718Z,99.90
2018-09-10T22:23:02.898Z,99.90
2018-09-10T22:25:30.651Z,99.90
2018-09-10T22:27:58.304Z,99.90
2018-09-10T22:30:25.875Z,99.90
2018-09-10T22:32:53.527Z,99.90
2018-09-10T22:35:21.239Z,99.90
2018-09-10T22:37:48.930Z,99.90
2018-09-10T22:40:16.626Z,99.90
2018-09-10T22:42:44.293Z,99.90
2018-09-10T22:45:12.063Z,99.90
2018-09-10T22:47:39.951Z,99.90
2018-09-10T22:50:07.839Z,99.90
2018-09-10T22:52:35.675Z,99.90
2018-09-10T22:55:03.411Z,99.90
2018-09-10T22:57:31.111Z,99.90
2018-09-10T22:59:58.832Z,99.90
2018-09-10T23:02:26.451Z,99.90
2018-09-10T23:04:54.599Z,99.90
2018-09-10T23:07:22.191Z,99.90
2018-09-10T23:09:49.951Z,99.90
2018-09-10T23:12:17.827Z,99.90
2018-09-10T23:14:45.607Z,99.90
2018-09-10T23:17:13.256Z,99.90
2018-09-10T23:19:40.879Z,99.90
2018-09-10T23:22:08.583Z,99.90
2018-09-10T23:24:36.464Z,99.90
2018-09-10T23:27:04.271Z,99.90
2018-09-10T23:29:32.037Z,99.90
2018-09-10T23:31:59.723Z,99.90
2018-09-10T23:34:27.383Z,99.90
2018-09-10T23:36:55.027Z,99.90
2018-09-10T23:39:22.753Z,99.90
2018-09-10T23:41:50.556Z,99.90
2018-09-10T23:44:18.127Z,99.90
2018-09-10T23:46:45.751Z,99.90
2018-09-10T23:49:13.680Z,99.90
2018-09-10T23:51:41.357Z,99.90
2018-09-10T23:54:09.163Z,99.90
2018-09-10T23:56:36.994Z,99.90
2018-09-10T23:59:05.375Z,99.90
